Aeroporto :
LOGIN :

Iscrizione | Disclaimer

   EN    FR    IT 

 










Sommario :    VFR   VFR Marginale   IFR   IFR Intensivo   IFR Molto Intensivo
Visibilità : 
Base nubi : 
>= 8 km
>= 3000ft
5 / 8 km
1000 / 3000 ft
1500m / 5 km
500 / 1000 ft
800 / 1500m
200 / 500 ft
< 800m
< 200 ft
Simboli :   Temporali  Nebbia  Neve Forte  Precipitazioni Forti  Vento > 20 kt
SIGMETs :   Varie  Temporali  Ghiacco  Turbolenza  Onda orograficha  Ceneri Vulcaniche






- Altitudine del aeroporto : 39 ft
- Codice IATA : ANR


EBAW - Anvers / Antwerpen Deurne

ULTIMO METAR :
  • 290620Z 36007KT CAVOK 05/M00 Q1028 NOSIG

METARs OBSOLETI :
  • 290550Z 36009KT 330V040 CAVOK 04/M00 Q1028 NOSIG
  • 290520Z 01009KT 340V040 CAVOK 04/M00 Q1028 NOSIG
  • 290450Z 01008KT 340V050 CAVOK 05/M00 Q1028 NOSIG
  • 290420Z AUTO 01008KT 330V040 CAVOK 05/M00 Q1028
  • 290350Z AUTO 01008KT 330V040 CAVOK 05/00 Q1028

TAF COR TAF EBAW
Valido dal 29 a 06 ore il 29 a 15 ore UTC


290619Z 2906/2915 02015KT 9999 SCT018
PROB30 2910/2915 04018G32KT 4500 SHGS SHRA SCT009 BKN014TCU



MetMap, La meteo Aeronautica in un colpo d'occhio ! - Copyright ORBIFLY Dicembre 2007 - Disclaimer

ORBIFLY MET'MAP TEAM :

Programmazione e sviluppo : Alexandra Zaïnal
Concezione : Baudouin d'Aumeries
Aiuto per la programmazione : Marc-Olivier Méhu
Supporto tecnico e logistico : Manuel Goepfert
Aiuto per la traduzione : Arnaldo La Scala

Contatto : metmap@orbifly.com




FONTI E CREDITI :

   NOAA